Time;durP1;ratioP1;P1;durP2;ratioP2;P2;SDS_P1;SDS_P2;PMS_P1;PMS_P2;Temp;Humidity;BMP_temperature;BMP_pressure;BME280_temperature;BME280_humidity;BME280_pressure;Samples;Min_cycle;Max_cycle;Signal;HPM_P1;HPM_P2
2022/03/20 00:00:46;;;;;;;15.82;6.13;;;4.30;99.90;;;;;;5112865;27;20102;-66
2022/03/20 00:03:12;;;;;;;19.50;6.40;;;4.30;99.90;;;;;;5114837;27;20046;-66
2022/03/20 00:05:40;;;;;;;29.20;6.35;;;4.40;99.90;;;;;;5119757;27;20055;-66
2022/03/20 00:08:12;;;;;;;13.73;5.57;;;4.30;99.90;;;;;;5115249;27;20031;-66
2022/03/20 00:10:46;;;;;;;14.73;6.40;;;4.20;99.90;;;;;;5112602;27;20024;-67
2022/03/20 00:13:15;;;;;;;12.18;4.70;;;4.10;99.90;;;;;;5121545;27;20122;-66
2022/03/20 00:15:42;;;;;;;24.98;6.57;;;4.10;99.90;;;;;;5116423;27;20713;-66
2022/03/20 00:18:11;;;;;;;14.45;5.85;;;4.10;99.90;;;;;;5125011;27;20019;-66
2022/03/20 00:20:47;;;;;;;24.23;7.10;;;3.90;99.90;;;;;;5118994;27;20353;-66
2022/03/20 00:23:13;;;;;;;16.23;6.10;;;3.90;99.90;;;;;;5124944;27;20031;-66
2022/03/20 00:25:42;;;;;;;11.68;5.20;;;3.90;99.90;;;;;;5117132;27;20031;-66
2022/03/20 00:28:09;;;;;;;16.77;6.90;;;3.90;99.90;;;;;;5119986;27;20054;-66
2022/03/20 00:30:35;;;;;;;16.17;6.45;;;3.80;99.90;;;;;;5120915;27;20039;-66
2022/03/20 00:33:01;;;;;;;12.65;5.18;;;3.80;99.90;;;;;;5112372;27;20027;-66
2022/03/20 00:35:27;;;;;;;21.05;7.60;;;3.80;99.90;;;;;;5113501;27;20033;-66
2022/03/20 00:37:53;;;;;;;18.80;6.63;;;3.70;99.90;;;;;;5119412;27;20066;-66
2022/03/20 00:40:19;;;;;;;20.45;8.15;;;3.70;99.90;;;;;;5115432;27;20472;-66
2022/03/20 00:42:44;;;;;;;20.15;6.85;;;3.80;99.90;;;;;;5123628;27;20031;-66
2022/03/20 00:45:10;;;;;;;13.98;5.72;;;3.70;99.90;;;;;;5119381;27;20036;-66
2022/03/20 00:47:35;;;;;;;14.35;5.32;;;3.70;99.90;;;;;;5121825;27;20035;-66
2022/03/20 00:50:01;;;;;;;10.25;4.25;;;3.70;99.90;;;;;;5118631;27;20369;-66
2022/03/20 00:52:27;;;;;;;14.77;5.82;;;3.60;99.90;;;;;;5114458;27;20034;-66
2022/03/20 00:54:53;;;;;;;7.57;4.18;;;3.60;99.90;;;;;;5117455;27;20024;-66
2022/03/20 00:57:19;;;;;;;11.75;5.57;;;3.70;99.90;;;;;;5118873;27;20027;-66
2022/03/20 00:59:45;;;;;;;12.80;5.10;;;3.70;99.90;;;;;;5118656;27;20023;-66
2022/03/20 01:02:11;;;;;;;11.73;6.07;;;3.50;99.90;;;;;;5120953;27;20023;-66
2022/03/20 01:04:37;;;;;;;14.93;5.25;;;3.50;99.90;;;;;;5119448;27;20387;-66
2022/03/20 01:07:04;;;;;;;19.23;6.40;;;3.50;99.90;;;;;;5116187;27;20015;-66
2022/03/20 01:09:30;;;;;;;19.30;6.95;;;3.50;99.90;;;;;;5112799;27;20080;-66
2022/03/20 01:11:56;;;;;;;10.35;4.20;;;3.40;99.90;;;;;;5116488;27;20036;-66
2022/03/20 01:14:24;;;;;;;18.33;6.68;;;3.40;99.90;;;;;;5112103;27;20023;-66
2022/03/20 01:16:50;;;;;;;15.50;5.85;;;3.50;99.90;;;;;;5115435;27;20025;-66
2022/03/20 01:19:16;;;;;;;17.58;6.15;;;3.50;99.90;;;;;;5115360;27;20399;-66
2022/03/20 01:21:42;;;;;;;20.42;6.20;;;3.40;99.90;;;;;;5117301;27;20019;-66
2022/03/20 01:24:09;;;;;;;12.35;5.03;;;3.40;99.90;;;;;;5116870;27;20096;-66
2022/03/20 01:26:36;;;;;;;14.88;5.97;;;3.50;99.90;;;;;;5119020;27;20011;-66
2022/03/20 01:29:02;;;;;;;9.52;4.72;;;3.30;99.90;;;;;;5123149;27;20525;-66
2022/03/20 01:31:28;;;;;;;14.80;5.32;;;3.30;99.90;;;;;;5120535;27;20038;-66
2022/03/20 01:33:58;;;;;;;18.35;4.20;;;3.40;99.90;;;;;;5122543;27;20450;-66
2022/03/20 01:36:25;;;;;;;14.35;6.00;;;3.30;99.90;;;;;;5117664;27;20042;-66
2022/03/20 01:38:51;;;;;;;12.13;5.35;;;3.30;99.90;;;;;;5121058;27;20033;-66
2022/03/20 01:41:16;;;;;;;13.80;5.22;;;3.30;99.90;;;;;;5119510;27;20023;-66
2022/03/20 01:44:08;;;;;;;13.50;5.70;;;3.30;99.90;;;;;;5122047;27;20034;-66
2022/03/20 01:46:34;;;;;;;13.20;5.53;;;3.30;99.90;;;;;;5113939;27;20410;-66
2022/03/20 01:48:59;;;;;;;23.88;7.10;;;3.30;99.90;;;;;;5120518;27;20031;-66
2022/03/20 01:54:13;;;;;;;9.38;4.35;;;3.30;99.90;;;;;;5116599;27;20050;-66
2022/03/20 01:56:49;;;;;;;19.67;6.17;;;3.30;99.90;;;;;;5120441;27;20015;-66
2022/03/20 01:59:16;;;;;;;19.42;7.50;;;3.20;99.90;;;;;;5117626;27;20414;-66
2022/03/20 02:01:42;;;;;;;18.98;6.40;;;3.20;99.90;;;;;;5117765;27;20067;-66
2022/03/20 02:04:15;;;;;;;15.25;4.60;;;3.30;99.90;;;;;;5114177;27;20053;-66
2022/03/20 02:06:44;;;;;;;8.07;4.22;;;3.40;99.90;;;;;;5120720;27;20019;-66
2022/03/20 02:09:10;;;;;;;13.93;4.93;;;3.40;99.90;;;;;;5119758;27;20023;-66
2022/03/20 02:11:36;;;;;;;16.02;4.80;;;3.40;99.90;;;;;;5123353;27;20167;-66
2022/03/20 02:14:04;;;;;;;13.05;5.65;;;3.40;99.90;;;;;;5120215;27;20107;-66
2022/03/20 02:16:29;;;;;;;13.77;5.50;;;3.40;99.90;;;;;;5125367;27;20026;-66
2022/03/20 02:18:55;;;;;;;12.73;6.00;;;3.40;99.90;;;;;;5122003;27;20018;-66
2022/03/20 02:21:41;;;;;;;12.07;4.65;;;3.40;99.90;;;;;;5127422;27;20031;-66
2022/03/20 02:24:36;;;;;;;11.27;5.18;;;3.50;99.90;;;;;;5123710;27;20542;-66
2022/03/20 02:27:22;;;;;;;19.80;7.18;;;3.50;99.90;;;;;;5123400;27;20519;-66
2022/03/20 02:29:48;;;;;;;16.40;4.93;;;3.70;99.90;;;;;;5122585;27;20050;-66
2022/03/20 02:32:17;;;;;;;14.98;5.85;;;3.70;99.90;;;;;;5121176;27;20016;-66
2022/03/20 02:34:47;;;;;;;11.18;4.97;;;3.70;99.90;;;;;;5125681;27;20387;-66
2022/03/20 02:37:13;;;;;;;;;;;3.70;99.90;;;;;;5118624;27;20022;-66
2022/03/20 02:39:40;;;;;;;9.90;4.35;;;3.80;99.90;;;;;;5115656;27;19943;-66
2022/03/20 02:42:06;;;;;;;15.60;4.85;;;3.80;99.90;;;;;;5116424;27;20121;-66
2022/03/20 02:45:12;;;;;;;13.80;4.82;;;3.90;99.90;;;;;;5115211;27;20106;-66
2022/03/20 02:47:40;;;;;;;15.10;5.20;;;3.90;99.90;;;;;;5048234;28;20119;-66
2022/03/20 02:50:11;;;;;;;11.57;5.07;;;3.90;99.90;;;;;;5110859;27;20465;-66
2022/03/20 02:52:39;;;;;;;15.23;5.20;;;3.90;99.90;;;;;;5119559;27;20045;-66
2022/03/20 02:55:05;;;;;;;11.43;5.15;;;4.00;99.90;;;;;;5126106;27;20018;-66
2022/03/20 02:57:32;;;;;;;26.77;8.77;;;4.00;99.90;;;;;;5125136;27;20357;-66
2022/03/20 03:00:00;;;;;;;16.25;5.90;;;4.00;99.90;;;;;;5124010;27;20561;-66
2022/03/20 03:02:30;;;;;;;23.25;7.90;;;4.00;99.90;;;;;;5122763;27;20051;-66
2022/03/20 03:04:59;;;;;;;14.13;5.05;;;3.90;99.90;;;;;;5127170;27;20107;-66
2022/03/20 03:07:27;;;;;;;19.58;7.47;;;4.00;99.90;;;;;;5117080;27;20383;-66
2022/03/20 03:12:37;;;;;;;12.20;4.70;;;4.00;99.90;;;;;;5121941;27;20521;-66
2022/03/20 03:15:21;;;;;;;18.45;7.00;;;4.00;99.90;;;;;;5121817;27;20047;-66
2022/03/20 03:17:50;;;;;;;16.10;6.50;;;4.10;99.90;;;;;;5126608;27;20079;-66
2022/03/20 03:20:19;;;;;;;16.65;5.13;;;4.10;99.90;;;;;;5115528;27;20557;-66
2022/03/20 03:22:45;;;;;;;12.13;5.57;;;4.00;99.90;;;;;;5122794;27;20090;-66
2022/03/20 03:25:11;;;;;;;15.98;5.22;;;4.10;99.90;;;;;;5119949;27;20126;-66
2022/03/20 03:27:37;;;;;;;19.60;6.22;;;4.10;99.90;;;;;;5125673;27;20122;-66
2022/03/20 03:30:04;;;;;;;20.92;8.43;;;4.00;99.90;;;;;;5127281;27;20118;-66
2022/03/20 03:32:31;;;;;;;19.60;7.55;;;3.90;99.90;;;;;;5124239;27;20127;-66
2022/03/20 03:37:41;;;;;;;19.08;6.15;;;3.90;99.90;;;;;;5118605;27;20034;-66
2022/03/20 03:40:10;;;;;;;20.10;8.45;;;3.90;99.90;;;;;;5115558;27;20019;-66
2022/03/20 03:42:36;;;;;;;15.48;5.85;;;3.90;99.90;;;;;;5124907;27;20020;-66
2022/03/20 03:45:03;;;;;;;15.10;5.95;;;3.90;99.90;;;;;;5121076;27;20015;-66
2022/03/20 03:47:28;;;;;;;13.68;5.97;;;3.90;99.90;;;;;;5125110;27;20369;-66
2022/03/20 03:49:54;;;;;;;17.92;5.80;;;3.90;99.90;;;;;;5123846;27;20489;-66
2022/03/20 03:52:20;;;;;;;10.88;4.32;;;4.00;99.90;;;;;;5120217;27;20498;-66
2022/03/20 03:54:46;;;;;;;17.45;6.88;;;4.10;99.90;;;;;;5117849;27;20118;-66
2022/03/20 03:57:12;;;;;;;10.32;4.43;;;4.00;99.90;;;;;;5125489;27;20445;-66
2022/03/20 03:59:37;;;;;;;22.27;7.13;;;4.00;99.90;;;;;;5125075;27;20027;-66
2022/03/20 04:02:04;;;;;;;14.45;5.72;;;4.00;99.70;;;;;;5114350;27;20023;-66
2022/03/20 04:04:29;;;;;;;20.02;6.30;;;3.80;99.90;;;;;;5115416;27;20043;-66
2022/03/20 04:06:56;;;;;;;48.95;6.38;;;3.80;99.90;;;;;;5119417;27;20055;-66
2022/03/20 04:09:22;;;;;;;14.52;6.00;;;3.90;99.90;;;;;;5116855;27;20024;-66
2022/03/20 04:11:48;;;;;;;13.45;5.82;;;3.90;99.90;;;;;;5124440;27;20626;-66
2022/03/20 04:14:14;;;;;;;16.23;6.22;;;3.90;99.90;;;;;;5113239;27;20027;-66
2022/03/20 04:16:40;;;;;;;11.40;4.07;;;3.90;99.90;;;;;;5123468;27;20012;-66
2022/03/20 04:19:05;;;;;;;15.77;6.97;;;3.90;99.90;;;;;;5123176;27;20042;-66
2022/03/20 04:21:31;;;;;;;16.83;6.25;;;4.00;99.90;;;;;;5120400;27;20076;-66
2022/03/20 04:23:56;;;;;;;17.30;5.30;;;3.80;99.90;;;;;;5123221;27;20475;-66
2022/03/20 04:26:23;;;;;;;15.00;5.22;;;3.70;99.90;;;;;;5128115;27;20027;-66
2022/03/20 04:28:51;;;;;;;10.20;3.97;;;3.70;99.90;;;;;;5125012;27;20035;-66
2022/03/20 04:31:19;;;;;;;47.33;7.38;;;3.70;99.90;;;;;;5121828;27;20042;-66
2022/03/20 04:33:53;;;;;;;12.48;5.93;;;3.70;99.90;;;;;;5121527;27;20043;-66
2022/03/20 04:36:24;;;;;;;12.52;5.22;;;3.70;99.90;;;;;;5112390;27;20032;-66
2022/03/20 04:38:52;;;;;;;;;;;3.70;99.90;;;;;;5119154;27;20106;-66
2022/03/20 04:41:19;;;;;;;15.40;6.32;;;3.80;99.90;;;;;;5113663;27;19911;-66
2022/03/20 04:43:47;;;;;;;10.98;4.80;;;3.70;99.90;;;;;;5123246;27;20098;-66
2022/03/20 04:46:13;;;;;;;16.80;6.47;;;3.80;99.90;;;;;;5119453;27;20137;-66
2022/03/20 04:59:35;;;;;;;12.38;5.05;;;3.50;99.90;;;;;;5120562;27;20042;-66
2022/03/20 05:02:00;;;;;;;14.82;3.83;;;3.70;99.90;;;;;;5123645;27;20475;-66
2022/03/20 05:04:26;;;;;;;22.92;5.45;;;3.60;99.90;;;;;;5120988;27;20039;-66
2022/03/20 05:06:52;;;;;;;17.63;5.07;;;3.60;99.90;;;;;;5123560;27;20023;-66
2022/03/20 05:14:45;;;;;;;12.73;3.53;;;3.70;99.60;;;;;;5121514;27;20034;-66
2022/03/20 05:17:11;;;;;;;7.55;4.28;;;3.70;99.90;;;;;;5121760;27;20020;-66
2022/03/20 05:19:38;;;;;;;10.98;4.20;;;3.70;99.90;;;;;;5121687;27;20507;-66
2022/03/20 05:22:10;;;;;;;8.80;4.70;;;3.70;99.70;;;;;;5120321;27;20024;-66
2022/03/20 05:24:36;;;;;;;10.75;4.45;;;3.60;99.70;;;;;;5123355;27;20151;-66
2022/03/20 05:27:04;;;;;;;9.27;4.70;;;3.60;99.90;;;;;;5115754;27;20016;-66
2022/03/20 05:29:30;;;;;;;13.82;5.03;;;3.40;99.60;;;;;;5134967;27;20511;-66
2022/03/20 05:31:56;;;;;;;12.63;4.18;;;3.20;99.90;;;;;;5117064;27;20096;-66
2022/03/20 05:34:22;;;;;;;11.80;5.47;;;3.10;99.90;;;;;;5125812;27;20023;-66
2022/03/20 05:36:49;;;;;;;13.32;4.97;;;3.00;99.90;;;;;;5112702;28;20023;-66
2022/03/20 05:39:15;;;;;;;7.72;4.18;;;2.80;99.90;;;;;;5126043;27;20705;-66
2022/03/20 05:41:48;;;;;;;18.60;4.50;;;2.80;99.90;;;;;;5124330;27;20250;-66
2022/03/20 05:44:21;;;;;;;9.70;3.85;;;2.80;99.90;;;;;;5123869;27;20019;-66
2022/03/20 05:46:49;;;;;;;7.20;3.25;;;2.80;99.90;;;;;;5127042;27;20163;-66
2022/03/20 05:49:15;;;;;;;19.48;6.65;;;2.70;99.90;;;;;;5125190;27;20362;-66
2022/03/20 05:51:41;;;;;;;13.88;6.25;;;2.70;99.90;;;;;;5124231;27;20368;-66
2022/03/20 05:54:07;;;;;;;12.05;3.80;;;2.60;99.90;;;;;;5125140;27;20085;-66
2022/03/20 05:59:17;;;;;;;12.55;4.57;;;2.60;99.90;;;;;;5119829;27;20043;-66
2022/03/20 06:01:43;;;;;;;13.73;5.55;;;2.50;99.90;;;;;;5130986;27;20031;-66
2022/03/20 06:04:10;;;;;;;11.77;5.18;;;2.50;99.90;;;;;;5125870;27;20414;-66
2022/03/20 06:06:36;;;;;;;14.18;5.85;;;2.50;99.90;;;;;;5123974;27;20439;-66
2022/03/20 06:09:06;;;;;;;14.30;4.65;;;2.40;99.90;;;;;;5120360;27;20030;-66
2022/03/20 06:11:34;;;;;;;13.30;5.57;;;2.50;99.90;;;;;;5125521;27;20015;-66
2022/03/20 06:14:03;;;;;;;17.00;5.75;;;2.50;99.90;;;;;;5120967;27;20035;-66
2022/03/20 06:16:29;;;;;;;7.63;3.17;;;2.50;99.90;;;;;;5124875;27;20046;-66
2022/03/20 06:18:55;;;;;;;10.60;5.30;;;2.50;99.90;;;;;;5116366;27;20020;-66
2022/03/20 06:21:22;;;;;;;9.40;4.40;;;2.50;99.90;;;;;;5127367;27;20461;-66
2022/03/20 06:23:48;;;;;;;11.63;5.45;;;2.50;99.90;;;;;;5121386;27;20023;-66
2022/03/20 06:26:14;;;;;;;12.55;4.00;;;2.50;99.90;;;;;;5128432;27;20031;-66
2022/03/20 06:28:40;;;;;;;9.45;4.72;;;2.50;99.90;;;;;;5122644;27;20050;-66
2022/03/20 06:31:12;;;;;;;12.18;4.53;;;2.50;99.90;;;;;;5130870;27;20031;-66
2022/03/20 06:33:39;;;;;;;16.25;6.50;;;2.50;99.90;;;;;;5123050;27;20023;-66
2022/03/20 06:36:07;;;;;;;14.93;6.05;;;2.50;99.90;;;;;;5119022;27;20044;-66
2022/03/20 06:38:34;;;;;;;14.18;5.45;;;2.50;99.90;;;;;;5117916;27;20023;-66
2022/03/20 06:41:00;;;;;;;11.13;4.35;;;2.60;99.90;;;;;;5120474;27;20076;-67
2022/03/20 06:43:26;;;;;;;10.00;3.28;;;2.70;99.90;;;;;;5128562;27;20027;-67
2022/03/20 06:45:55;;;;;;;13.65;4.40;;;2.70;99.90;;;;;;5126055;27;20035;-66
2022/03/20 06:48:21;;;;;;;19.35;4.90;;;2.80;99.90;;;;;;5125215;27;20024;-67
2022/03/20 06:50:47;;;;;;;10.98;3.83;;;2.80;99.90;;;;;;5128017;27;20050;-66
2022/03/20 06:53:13;;;;;;;13.98;4.45;;;2.90;99.90;;;;;;5129164;27;20016;-66
2022/03/20 06:55:39;;;;;;;16.42;5.72;;;3.00;99.90;;;;;;5126980;27;20527;-66
2022/03/20 06:58:05;;;;;;;12.30;4.30;;;3.00;99.90;;;;;;5118101;27;20292;-66
2022/03/20 07:00:31;;;;;;;8.27;3.05;;;3.10;99.90;;;;;;5125422;27;20031;-66
2022/03/20 07:03:03;;;;;;;11.27;3.88;;;3.20;99.90;;;;;;5127154;27;20019;-66
2022/03/20 07:05:28;;;;;;;11.02;3.20;;;3.20;99.90;;;;;;5118716;27;20056;-66
2022/03/20 07:07:54;;;;;;;14.77;5.75;;;3.20;99.90;;;;;;5120323;27;20519;-66
2022/03/20 07:10:24;;;;;;;12.90;5.13;;;3.20;99.90;;;;;;5118266;27;20054;-66
2022/03/20 07:12:50;;;;;;;14.35;5.03;;;3.20;99.90;;;;;;5121085;27;20139;-66
2022/03/20 07:15:19;;;;;;;13.43;5.95;;;3.10;99.90;;;;;;5118216;27;20099;-66
2022/03/20 07:17:47;;;;;;;9.90;5.20;;;3.10;99.90;;;;;;5119991;27;20109;-66
2022/03/20 07:20:13;;;;;;;15.50;5.35;;;3.10;99.90;;;;;;5121292;27;20015;-66
2022/03/20 07:22:40;;;;;;;9.75;3.72;;;3.00;99.90;;;;;;5129681;27;20023;-66
2022/03/20 07:30:34;;;;;;;13.02;4.95;;;3.10;99.90;;;;;;5129901;27;20042;-66
2022/03/20 07:33:00;;;;;;;16.80;7.28;;;3.30;99.90;;;;;;5130041;27;20495;-66
2022/03/20 07:35:25;;;;;;;12.57;4.25;;;3.30;99.90;;;;;;5121998;27;20027;-66
2022/03/20 07:37:51;;;;;;;16.05;4.72;;;3.40;99.90;;;;;;5121594;27;20067;-66
2022/03/20 07:40:17;;;;;;;27.65;7.72;;;3.50;99.90;;;;;;5119693;27;20484;-66
2022/03/20 07:42:43;;;;;;;11.05;4.03;;;3.50;99.90;;;;;;5120417;27;20019;-66
2022/03/20 07:45:09;;;;;;;21.90;7.20;;;3.70;99.90;;;;;;5123680;27;20027;-66
2022/03/20 07:47:35;;;;;;;14.48;5.68;;;3.80;99.80;;;;;;5121394;27;20043;-66
2022/03/20 07:50:02;;;;;;;16.25;6.07;;;3.90;99.90;;;;;;5118404;27;20031;-66
2022/03/20 07:52:28;;;;;;;19.23;5.13;;;4.00;99.80;;;;;;5123446;27;20462;-67
2022/03/20 07:54:54;;;;;;;9.07;3.72;;;4.10;99.80;;;;;;5118849;27;20020;-66
2022/03/20 07:57:20;;;;;;;14.30;7.20;;;4.30;99.90;;;;;;5122367;27;20035;-67
2022/03/20 07:59:46;;;;;;;14.23;5.13;;;4.40;98.90;;;;;;5120432;27;20212;-67
2022/03/20 08:02:12;;;;;;;14.00;5.53;;;4.50;99.30;;;;;;5123602;27;20156;-67
2022/03/20 08:04:40;;;;;;;17.65;6.13;;;4.60;99.00;;;;;;5124745;27;20023;-67
2022/03/20 08:07:06;;;;;;;16.50;6.95;;;4.80;99.30;;;;;;5113991;27;20467;-66
2022/03/20 08:09:32;;;;;;;12.68;4.85;;;5.00;98.40;;;;;;5122962;27;20030;-67
2022/03/20 08:11:58;;;;;;;17.83;5.43;;;5.00;98.70;;;;;;5119750;27;20024;-68
2022/03/20 08:14:24;;;;;;;19.30;5.57;;;5.20;98.70;;;;;;5117177;27;20159;-68
2022/03/20 08:16:50;;;;;;;15.00;5.97;;;5.20;98.20;;;;;;5120196;27;20102;-68
2022/03/20 08:19:19;;;;;;;10.52;4.53;;;5.30;98.10;;;;;;5125229;27;20510;-68
2022/03/20 08:21:47;;;;;;;12.23;5.70;;;5.40;98.10;;;;;;5125007;27;20026;-68
2022/03/20 08:24:14;;;;;;;15.15;6.13;;;5.50;97.90;;;;;;5118325;27;20084;-68
2022/03/20 08:26:40;;;;;;;12.48;5.40;;;5.50;98.10;;;;;;5114547;27;20031;-68
2022/03/20 08:29:12;;;;;;;12.85;4.88;;;5.60;97.80;;;;;;5120387;27;20073;-68
2022/03/20 08:31:44;;;;;;;15.15;5.93;;;6.00;97.60;;;;;;5117190;27;20142;-68
2022/03/20 08:34:09;;;;;;;9.80;5.00;;;5.80;97.40;;;;;;5122166;27;20521;-68
2022/03/20 08:36:35;;;;;;;15.20;5.10;;;5.90;97.90;;;;;;5118370;27;20042;-68
2022/03/20 08:39:01;;;;;;;14.70;5.20;;;6.20;97.00;;;;;;5120506;27;20015;-68
2022/03/20 08:41:27;;;;;;;22.50;5.20;;;6.50;97.30;;;;;;5120127;27;20036;-68
2022/03/20 08:43:53;;;;;;;22.55;8.30;;;6.80;96.80;;;;;;5116427;27;20412;-68
2022/03/20 08:46:19;;;;;;;14.55;6.10;;;7.10;96.30;;;;;;5111204;27;20126;-68
2022/03/20 08:48:44;;;;;;;13.75;6.68;;;6.80;95.90;;;;;;5122078;27;20394;-68
2022/03/20 08:51:10;;;;;;;23.15;7.32;;;6.90;95.80;;;;;;5117624;27;20023;-68
2022/03/20 08:53:35;;;;;;;19.40;6.25;;;6.60;95.60;;;;;;5123702;27;20027;-68
2022/03/20 08:56:01;;;;;;;11.65;5.53;;;7.10;96.30;;;;;;5117224;27;20449;-68
2022/03/20 08:58:27;;;;;;;15.52;6.53;;;6.90;96.10;;;;;;5118255;27;20069;-68
2022/03/20 09:00:52;;;;;;;26.15;8.18;;;7.00;96.00;;;;;;5120728;27;20024;-68
2022/03/20 09:03:18;;;;;;;17.80;6.75;;;7.50;95.50;;;;;;5124358;27;20371;-68
2022/03/20 09:05:44;;;;;;;13.77;6.07;;;7.60;95.40;;;;;;5124211;27;20575;-68
2022/03/20 09:08:10;;;;;;;12.20;6.10;;;7.80;95.10;;;;;;5124382;27;20535;-68
2022/03/20 09:10:35;;;;;;;18.40;6.05;;;7.90;94.30;;;;;;5112079;27;20031;-68
2022/03/20 09:13:01;;;;;;;16.08;6.40;;;7.90;95.30;;;;;;5123352;27;20023;-68
2022/03/20 09:15:29;;;;;;;19.98;7.40;;;8.40;94.80;;;;;;5118290;27;20027;-68
2022/03/20 09:20:42;;;;;;;20.10;6.57;;;8.50;94.30;;;;;;5116256;27;20034;-68
2022/03/20 09:23:09;;;;;;;24.05;8.68;;;8.40;94.30;;;;;;5114316;27;20031;-68
2022/03/20 09:25:35;;;;;;;20.25;7.93;;;8.60;94.10;;;;;;5122008;27;20051;-68
2022/03/20 09:28:03;;;;;;;20.13;7.30;;;8.80;94.00;;;;;;5122591;27;20854;-68
2022/03/20 09:30:29;;;;;;;16.60;7.20;;;9.20;94.00;;;;;;5122829;27;20039;-68
2022/03/20 09:32:54;;;;;;;16.35;6.82;;;9.20;94.30;;;;;;5128611;27;20027;-68
2022/03/20 09:35:20;;;;;;;20.08;7.20;;;10.00;93.20;;;;;;5126228;27;20092;-68
2022/03/20 09:37:46;;;;;;;17.98;7.20;;;10.50;92.10;;;;;;5121393;27;20526;-69
2022/03/20 09:40:12;;;;;;;20.27;7.47;;;11.40;91.00;;;;;;5117855;27;20039;-69
2022/03/20 09:42:39;;;;;;;25.40;9.05;;;11.90;90.10;;;;;;5123338;27;20031;-69
2022/03/20 09:45:06;;;;;;;19.05;7.30;;;10.70;90.10;;;;;;5117704;27;20020;-70
2022/03/20 09:47:38;;;;;;;25.52;9.25;;;11.90;89.40;;;;;;5123949;27;20028;-65
2022/03/20 09:50:04;;;;;;;26.50;8.05;;;12.30;86.20;;;;;;5125338;27;20023;-65
2022/03/20 09:52:30;;;;;;;24.33;8.05;;;12.00;88.30;;;;;;5120310;27;20446;-66
2022/03/20 09:54:58;;;;;;;22.40;7.70;;;12.80;86.40;;;;;;5122034;27;20043;-65
2022/03/20 09:57:29;;;;;;;22.05;7.90;;;13.30;85.80;;;;;;5124503;27;20054;-65
2022/03/20 10:00:01;;;;;;;28.48;8.38;;;13.70;82.80;;;;;;5124511;27;21063;-66
2022/03/20 10:02:27;;;;;;;20.02;7.65;;;13.80;81.10;;;;;;5120065;27;20105;-65
2022/03/20 10:04:57;;;;;;;26.00;9.00;;;14.20;82.40;;;;;;5114781;27;20026;-64
2022/03/20 10:07:29;;;;;;;20.83;8.02;;;14.50;79.70;;;;;;5117261;27;20139;-65
2022/03/20 10:10:09;;;;;;;23.90;8.80;;;14.40;78.10;;;;;;5115481;27;20037;-65
2022/03/20 10:12:37;;;;;;;24.00;8.77;;;13.70;78.80;;;;;;5116558;27;20395;-64
2022/03/20 10:15:05;;;;;;;20.25;7.80;;;13.50;78.90;;;;;;5113434;27;20038;-65
2022/03/20 10:17:31;;;;;;;21.58;6.78;;;13.90;78.30;;;;;;5120295;27;20051;-65
2022/03/20 10:20:18;;;;;;;27.80;9.48;;;14.50;80.70;;;;;;5119954;27;20059;-63
2022/03/20 10:22:45;;;;;;;21.40;7.75;;;15.00;78.10;;;;;;5127531;27;20027;-65
2022/03/20 10:25:11;;;;;;;18.63;7.15;;;15.10;76.20;;;;;;5121643;27;20027;-65
2022/03/20 10:27:38;;;;;;;21.05;7.82;;;14.40;76.70;;;;;;5121873;27;20034;-65
2022/03/20 10:30:08;;;;;;;20.60;8.48;;;14.30;75.90;;;;;;5118188;27;20411;-65
2022/03/20 10:32:35;;;;;;;;;;;13.90;77.30;;;;;;5123209;27;20390;-65
2022/03/20 10:35:04;;;;;;;25.33;8.52;;;13.60;76.30;;;;;;5120352;27;19968;-65
2022/03/20 10:37:52;;;;;;;23.30;8.75;;;13.50;77.40;;;;;;5116816;27;20030;-65
2022/03/20 10:40:18;;;;;;;22.95;9.13;;;13.30;78.40;;;;;;5122552;27;20778;-65
2022/03/20 10:43:08;;;;;;;21.05;7.85;;;13.10;78.70;;;;;;5121354;27;20028;-65
2022/03/20 10:45:54;;;;;;;21.67;7.57;;;12.90;79.40;;;;;;5122583;27;20034;-65
2022/03/20 10:48:28;;;;;;;23.55;8.50;;;13.10;79.50;;;;;;5125406;27;20027;-65
2022/03/20 10:50:55;;;;;;;16.75;7.25;;;13.00;78.70;;;;;;5114930;27;20033;-65
2022/03/20 10:53:20;;;;;;;20.33;8.20;;;12.90;78.40;;;;;;5124247;27;20034;-65
2022/03/20 10:55:46;;;;;;;32.25;8.63;;;12.70;79.50;;;;;;5120149;27;20031;-65
2022/03/20 10:58:23;;;;;;;24.92;8.80;;;13.10;79.40;;;;;;5117759;27;20103;-65
2022/03/20 11:00:49;;;;;;;24.27;8.50;;;13.10;78.90;;;;;;5121542;27;20027;-66
2022/03/20 11:03:19;;;;;;;25.65;8.23;;;13.20;78.90;;;;;;5123276;27;20022;-65
2022/03/20 11:05:45;;;;;;;23.13;8.07;;;13.20;78.90;;;;;;5122225;27;20031;-65
2022/03/20 11:08:11;;;;;;;22.55;8.80;;;13.70;78.10;;;;;;5108777;27;20058;-66
2022/03/20 11:10:37;;;;;;;27.05;7.88;;;13.80;77.20;;;;;;5113708;27;20023;-66
2022/03/20 11:13:04;;;;;;;24.77;8.07;;;13.90;77.40;;;;;;5115950;27;20037;-66
2022/03/20 11:15:32;;;;;;;24.65;8.77;;;14.00;78.30;;;;;;5113298;27;20016;-66
2022/03/20 11:17:58;;;;;;;27.48;8.70;;;14.60;77.50;;;;;;5130293;27;20386;-66
2022/03/20 11:20:24;;;;;;;21.63;8.18;;;14.80;75.90;;;;;;5120373;27;20114;-66
2022/03/20 11:22:52;;;;;;;25.58;8.80;;;15.00;76.50;;;;;;5124956;27;20034;-66
2022/03/20 11:25:22;;;;;;;20.15;7.47;;;15.00;76.20;;;;;;5115491;27;21519;-66
2022/03/20 11:27:59;;;;;;;23.52;8.77;;;15.20;76.00;;;;;;5111690;27;20028;-66
2022/03/20 11:30:30;;;;;;;20.98;8.43;;;15.00;75.60;;;;;;5111613;27;20043;-65
2022/03/20 11:33:00;;;;;;;21.60;8.68;;;15.10;76.90;;;;;;5110455;27;20058;-65
2022/03/20 11:35:29;;;;;;;20.73;8.27;;;15.30;75.50;;;;;;5113358;27;20604;-65
2022/03/20 11:37:58;;;;;;;22.98;8.60;;;14.90;75.70;;;;;;5112833;27;20782;-65
2022/03/20 11:40:26;;;;;;;21.83;8.73;;;14.90;76.60;;;;;;5107829;27;20162;-66
2022/03/20 11:43:10;;;;;;;24.45;9.07;;;14.80;76.30;;;;;;5112325;27;20020;-66
2022/03/20 11:45:36;;;;;;;20.75;7.53;;;14.70;77.10;;;;;;5108140;27;20036;-65
2022/03/20 11:48:16;;;;;;;25.45;7.55;;;14.80;76.40;;;;;;5109218;27;20023;-65
2022/03/20 11:50:45;;;;;;;21.73;8.73;;;14.80;76.70;;;;;;5109381;27;20063;-65
2022/03/20 11:53:13;;;;;;;22.98;8.65;;;15.00;76.50;;;;;;5114060;27;20463;-66
2022/03/20 11:55:41;;;;;;;19.10;6.70;;;15.40;76.90;;;;;;5112156;27;20054;-66
2022/03/20 11:58:11;;;;;;;23.95;7.68;;;15.30;76.90;;;;;;5115145;27;20031;-66
2022/03/20 12:00:40;;;;;;;27.52;8.20;;;15.80;77.00;;;;;;5105068;27;20545;-64
2022/03/20 12:03:14;;;;;;;21.92;7.53;;;16.50;75.30;;;;;;5108123;27;20511;-64
2022/03/20 12:05:58;;;;;;;23.25;7.60;;;16.70;75.70;;;;;;5106877;27;20035;-64
2022/03/20 12:08:27;;;;;;;20.48;7.90;;;16.10;74.90;;;;;;5118929;27;20065;-64
2022/03/20 12:11:30;;;;;;;22.70;7.93;;;15.70;76.40;;;;;;5108468;27;20024;-64
2022/03/20 12:14:13;;;;;;;26.75;7.97;;;15.80;76.20;;;;;;5118105;27;20079;-64
2022/03/20 12:16:47;;;;;;;19.17;7.32;;;16.00;77.00;;;;;;5116738;27;20012;-64
2022/03/20 12:19:15;;;;;;;16.67;6.80;;;16.00;76.10;;;;;;5115415;27;20471;-64
2022/03/20 12:22:18;;;;;;;17.13;6.20;;;15.70;78.00;;;;;;5114042;27;20529;-66
2022/03/20 12:24:47;;;;;;;19.95;8.20;;;15.60;76.70;;;;;;5112391;27;20392;-66
2022/03/20 12:27:22;;;;;;;27.35;9.27;;;15.50;77.50;;;;;;5113892;27;20487;-66
2022/03/20 12:29:58;;;;;;;20.77;8.43;;;15.30;79.10;;;;;;5115101;27;20051;-66
2022/03/20 12:32:26;;;;;;;21.40;8.57;;;15.20;78.50;;;;;;5115504;27;20032;-66
2022/03/20 12:35:02;;;;;;;25.63;9.95;;;15.10;78.80;;;;;;5111563;27;20636;-66
2022/03/20 12:37:34;;;;;;;22.55;8.52;;;14.50;80.10;;;;;;5115662;27;20064;-66
2022/03/20 12:40:06;;;;;;;22.30;8.70;;;14.50;80.60;;;;;;5115004;27;20433;-66
2022/03/20 12:42:33;;;;;;;22.65;8.35;;;14.60;80.20;;;;;;5108288;27;20039;-67
2022/03/20 12:45:00;;;;;;;27.70;9.00;;;14.50;80.50;;;;;;5110161;27;20079;-67
2022/03/20 12:47:27;;;;;;;19.77;7.57;;;14.40;80.90;;;;;;5113141;27;20605;-67
2022/03/20 12:49:59;;;;;;;19.33;6.93;;;14.10;81.90;;;;;;5112914;27;20164;-67
2022/03/20 12:52:26;;;;;;;26.27;8.95;;;14.20;82.00;;;;;;5111188;27;20026;-67
2022/03/20 12:54:56;;;;;;;16.02;6.55;;;14.20;83.70;;;;;;5113344;28;20530;-67
2022/03/20 12:57:40;;;;;;;;;;;14.20;82.80;;;;;;5110469;27;20295;-67
2022/03/20 13:00:22;;;;;;;25.35;9.48;;;14.20;83.20;;;;;;5108322;28;20200;-67
2022/03/20 13:02:57;;;;;;;23.15;6.07;;;14.10;83.70;;;;;;5114715;28;20399;-67
2022/03/20 13:05:28;;;;;;;22.55;8.18;;;14.20;84.00;;;;;;5114166;27;20299;-67
2022/03/20 13:07:55;;;;;;;25.58;8.30;;;14.10;84.00;;;;;;5119067;28;20020;-67
2022/03/20 13:10:23;;;;;;;27.02;8.77;;;14.20;83.70;;;;;;5112844;28;20034;-67
2022/03/20 13:12:58;;;;;;;20.33;8.43;;;14.50;84.00;;;;;;5112259;28;20035;-67
2022/03/20 13:15:29;;;;;;;23.80;9.02;;;14.50;83.10;;;;;;5115654;28;20307;-67
2022/03/20 13:17:55;;;;;;;22.80;8.10;;;14.40;83.50;;;;;;5129580;27;20327;-67
2022/03/20 13:20:24;;;;;;;21.70;8.18;;;14.30;84.50;;;;;;5116531;28;20023;-67
2022/03/20 13:22:49;;;;;;;25.02;9.07;;;14.40;84.10;;;;;;5116306;28;20388;-67
2022/03/20 13:25:18;;;;;;;26.95;8.57;;;14.50;84.50;;;;;;5110747;28;20092;-67
2022/03/20 13:27:46;;;;;;;23.35;7.82;;;14.90;83.80;;;;;;5117840;27;20378;-67